Airfield :
LOGIN :

Register | Disclaimer

   EN    FR    IT 

 










Legend :    VFR   Marginal VFR   IFR   Intensive IFR   Very Intensive IFR
Visi :
Ceiling :
>= 8 km
>= 3000ft
5 to 8 km
1000 to 3000 ft
1500m to 5 km
500 to 1000 ft
800 to 1500m
200 to 500 ft
< 800m
< 200 ft
Symbols :   Thunderstorms  Fog  Heavy snow  Heavy precipitations  Wind > 20 kt
SIGMETs :     Misc.  Thunderstorms  Icing  Turbulence  Mountain Waves  Volcanic Ashes






- Airport Elevation : 3 ft
- IATA code : LWR


EHLW - Leuuwarden Air Base

CURRENT METAR :
  • 280756Z AUTO 20010KT 160V220 9999 FEW006 SCT008 BKN009 05/05 Q0985 GRN

EXPIRED METARs :
  • 280755Z AUTO 20010KT 160V220 9999 FEW006 SCT007 BKN015 05/05 Q0985 GRN
  • 280738Z AUTO 20011KT 160V230 9999 FEW006 OVC031 05/04 Q0985 BLU
  • 280731Z AUTO 20011KT 160V220 9999 FEW006 SCT007 BKN029 05/04 Q0985 GRN
  • 280712Z AUTO 20010KT 160V220 9999 -DZ SCT006 BKN008 OVC030 05/04 Q0986 YLO
  • 280655Z AUTO 20009KT 170V230 9999 -RA BKN006 BKN008 OVC029 05/04 Q0986 YLO
  • 280650Z AUTO 20010KT 170V230 9999 SCT006 SCT008 BKN009 05/04 Q0986 YLO
  • 280635Z AUTO 20012KT 170V230 9999 -DZ FEW013 BKN031 OVC036 05/04 Q0986 BLU
  • 280625Z AUTO 21011KT 9999 DZ FEW008 SCT029 BKN034 05/04 Q0986 BLU
  • 280600Z AUTO 22013KT 9999 BKN012 BKN032 BKN036 06/04 Q0986 GRN
  • 280555Z AUTO 22012KT 180V240 9999 SCT013 BKN027 BKN031 06/04 Q0987 REDZ GRN
  • 280529Z AUTO 21011KT 170V230 9999 DZ FEW006 SCT007 BKN011 06/05 Q0987 GRN
  • 280513Z AUTO 21009KT 160V230 9999 FEW019 SCT022 OVC200 05/05 Q0987 WHT

TAF TAF EHLW
Valid from the 28 at 06:00 until the 28 at 18:00 UTC


280538Z 2806/2818 22012KT 9999 SCT015 BKN020
BECMG 2808/2810 27022G32KT
TEMPO 2806/2818 26027G38KT 4000 SHRA SCT008 SCT018CB BKN020
PROB30
TEMPO 2806/2815 27025G43KT 3000 TSRAGS SCT006 SCT015CB BKN020



MET'MAP, your aeronautical weather chart ! - Copyright ORBIFLY December 2007 - Disclaimer

ORBIFLY MET'MAP TEAM :

Programming & Development : Alexandra Zaïnal
Concept & original design : Baudouin d'Aumeries
Assistance for programming : Marc-Olivier Méhu
Technical & hardware support : Manuel Goepfert

Contact : metmap@orbifly.com




SOURCES & CREDITS :

   NOAA